Time;durP1;ratioP1;P1;durP2;ratioP2;P2;SDS_P1;SDS_P2;PMS_P1;PMS_P2;Temp;Humidity;BMP_temperature;BMP_pressure;BME280_temperature;BME280_humidity;BME280_pressure;Samples;Min_cycle;Max_cycle;Signal;HPM_P1;HPM_P2
2023/09/27 00:01:00;;;;;;;;;24.25;21.00;;;;;-143.90;100.00;75409.97;4955246;28;102405;-73
2023/09/27 00:03:27;;;;;;;;;17.75;17.75;;;;;-143.90;100.00;75401.72;4952981;28;104458;-73
2023/09/27 00:05:54;;;;;;;;;15.00;14.00;;;;;-143.90;100.00;75401.72;4961102;28;102359;-73
2023/09/27 00:08:21;;;;;;;;;14.00;12.75;;;;;-143.90;100.00;75397.56;4960231;28;102005;-73
2023/09/27 00:10:48;;;;;;;;;11.75;11.00;;;;;-143.90;100.00;75401.72;4965909;28;102444;-73
2023/09/27 00:13:15;;;;;;;;;8.50;8.25;;;;;-143.90;100.00;75426.50;4962359;28;108347;-73
2023/09/27 00:15:42;;;;;;;;;11.00;9.75;;;;;-143.90;100.00;75428.59;4964931;28;102414;-73
2023/09/27 00:18:10;;;;;;;;;14.00;13.00;;;;;-143.90;100.00;75428.59;4962024;28;102108;-73
2023/09/27 00:20:37;;;;;;;;;11.75;8.75;;;;;-143.90;100.00;75428.59;4962805;28;102237;-73
2023/09/27 00:23:05;;;;;;;;;9.75;9.00;;;;;-143.90;100.00;75416.19;4965782;28;104997;-74
2023/09/27 00:25:32;;;;;;;;;9.00;7.75;;;;;-143.90;100.00;75424.44;4964406;28;102285;-73
2023/09/27 00:27:59;;;;;;;;;8.25;8.00;;;;;-143.90;100.00;75418.25;4959828;28;102047;-73
2023/09/27 00:30:25;;;;;;;;;8.75;8.00;;;;;-143.90;100.00;75422.38;4961891;28;102947;-73
2023/09/27 00:32:53;;;;;;;;;7.75;7.25;;;;;-143.90;100.00;75416.19;4958912;28;104041;-73
2023/09/27 00:35:22;;;;;;;;;6.75;6.00;;;;;-143.90;100.00;75416.19;4965981;28;103824;-73
2023/09/27 00:37:51;;;;;;;;;7.00;7.00;;;;;-143.90;100.00;75420.31;4953671;28;102314;-73
2023/09/27 00:40:21;;;;;;;;;4.75;4.00;;;;;-143.90;100.00;75420.31;4955403;28;103950;-73
2023/09/27 00:42:48;;;;;;;;;12.25;10.25;;;;;-143.90;100.00;75441.00;4955423;28;103928;-73
2023/09/27 00:45:17;;;;;;;;;14.00;11.50;;;;;-143.90;100.00;75432.72;4952404;28;102218;-72
2023/09/27 00:47:46;;;;;;;;;12.25;10.75;;;;;-143.90;100.00;75438.94;4941549;28;102306;-72
2023/09/27 00:50:14;;;;;;;;;10.75;8.25;;;;;-143.90;100.00;75436.84;4958230;28;102408;-72
2023/09/27 00:52:43;;;;;;;;;12.50;12.00;;;;;-143.90;100.00;75441.00;4957373;28;104037;-73
2023/09/27 00:55:12;;;;;;;;;8.75;8.75;;;;;-143.90;100.00;75432.72;4959100;28;104791;-73
2023/09/27 00:57:40;;;;;;;;;8.75;8.50;;;;;-143.90;100.00;75441.00;4954198;28;102188;-73
2023/09/27 01:00:10;;;;;;;;;7.75;7.75;;;;;-143.90;100.00;75432.72;4963685;28;102050;-73
2023/09/27 01:02:41;;;;;;;;;10.25;8.75;;;;;-143.90;100.00;75436.84;4947241;28;105326;-72
2023/09/27 01:05:11;;;;;;;;;11.00;9.50;;;;;-143.90;100.00;75443.06;4941785;28;102096;-72
2023/09/27 01:07:41;;;;;;;;;10.75;9.25;;;;;-143.90;100.00;75443.06;4953709;28;102359;-73
2023/09/27 01:10:08;;;;;;;;;12.00;11.00;;;;;-143.90;100.00;75463.72;4952948;28;102871;-72
2023/09/27 01:12:36;;;;;;;;;12.75;12.25;;;;;-143.90;100.00;75474.06;4958723;28;104149;-72
2023/09/27 01:15:06;;;;;;;;;14.00;12.00;;;;;-143.90;100.00;75461.66;4954664;28;102322;-72
2023/09/27 01:17:34;;;;;;;;;23.75;22.75;;;;;-143.90;100.00;75490.63;4961434;28;102156;-73
2023/09/27 01:20:01;;;;;;;;;32.00;28.00;;;;;-143.90;100.00;75490.63;4965918;28;102204;-74
2023/09/27 01:22:27;;;;;;;;;26.75;24.00;;;;;-143.90;100.00;75478.22;4982143;28;108880;-72
2023/09/27 01:24:56;;;;;;;;;18.75;17.25;;;;;-143.90;100.00;75486.47;4963839;28;102434;-73
2023/09/27 01:27:23;;;;;;;;;16.00;13.00;;;;;-143.90;100.00;75474.06;4968379;28;102219;-73
2023/09/27 01:29:50;;;;;;;;;15.75;14.00;;;;;-143.90;100.00;75478.22;4964094;28;102143;-73
2023/09/27 01:32:18;;;;;;;;;22.75;21.75;;;;;-143.90;100.00;75494.75;4956012;28;105255;-74
2023/09/27 01:34:45;;;;;;;;;14.50;14.00;;;;;-143.90;100.00;75478.22;4964577;28;103013;-74
2023/09/27 01:37:12;;;;;;;;;24.75;22.75;;;;;-143.90;100.00;75488.53;4958161;28;103482;-72
2023/09/27 01:39:38;;;;;;;;;14.25;12.75;;;;;-143.90;100.00;75484.41;4955498;28;102276;-72
2023/09/27 01:42:05;;;;;;;;;16.75;14.25;;;;;-143.90;100.00;75478.22;4958759;28;103798;-75
2023/09/27 01:44:32;;;;;;;;;13.00;12.00;;;;;-143.90;100.00;75486.47;4958963;28;102065;-71
2023/09/27 01:46:58;;;;;;;;;10.75;10.75;;;;;-143.90;100.00;75480.28;4966094;28;102190;-75
2023/09/27 01:49:26;;;;;;;;;14.00;11.50;;;;;-143.90;100.00;75486.47;4964755;28;101952;-74
2023/09/27 01:51:52;;;;;;;;;8.00;7.50;;;;;-143.90;100.00;75492.69;4961254;28;108491;-74
2023/09/27 01:54:19;;;;;;;;;14.50;12.75;;;;;-143.90;100.00;75490.63;4961485;28;102380;-74
2023/09/27 01:56:46;;;;;;;;;16.75;14.25;;;;;-143.90;100.00;75505.09;4937778;28;102077;-74
2023/09/27 01:59:14;;;;;;;;;14.00;12.25;;;;;-143.90;100.00;75509.22;4950116;28;102201;-74
2023/09/27 02:01:41;;;;;;;;;14.00;13.25;;;;;-143.90;100.00;75507.16;4958614;28;103987;-74
2023/09/27 02:04:08;;;;;;;;;16.50;14.00;;;;;-143.90;100.00;75503.03;4964617;28;102123;-74
2023/09/27 02:06:35;;;;;;;;;13.25;12.25;;;;;-143.90;100.00;75503.03;4967760;28;102307;-74
2023/09/27 02:09:03;;;;;;;;;13.75;12.00;;;;;-143.90;100.00;75500.94;4968292;27;102763;-74
2023/09/27 02:11:31;;;;;;;;;10.50;9.50;;;;;-143.90;100.00;75498.88;4966099;28;103927;-74
2023/09/27 02:13:57;;;;;;;;;10.50;9.00;;;;;-143.90;100.00;75503.03;4959413;28;102082;-74
2023/09/27 02:16:24;;;;;;;;;14.50;12.50;;;;;-143.90;100.00;75505.09;4957819;28;101838;-74
2023/09/27 02:18:52;;;;;;;;;11.00;11.00;;;;;-143.90;100.00;75490.63;4953048;28;102233;-74
2023/09/27 02:21:19;;;;;;;;;8.00;8.00;;;;;-143.90;100.00;75503.03;4970212;28;104152;-74
2023/09/27 02:23:46;;;;;;;;;5.25;5.25;;;;;-143.90;100.00;75519.56;4968188;28;102350;-74
2023/09/27 02:26:13;;;;;;;;;12.25;11.25;;;;;-143.90;100.00;75525.75;4957888;28;102403;-74
2023/09/27 02:28:40;;;;;;;;;19.50;16.50;;;;;-143.90;100.00;75527.81;4967669;28;102353;-74
2023/09/27 02:31:10;;;;;;;;;14.00;14.00;;;;;-143.90;100.00;75519.56;4961773;28;103050;-74
2023/09/27 02:33:38;;;;;;;;;15.50;15.50;;;;;-143.90;100.00;75521.63;4960997;28;102029;-75
2023/09/27 02:36:05;;;;;;;;;12.50;12.00;;;;;-143.90;100.00;75529.91;4953158;28;101988;-74
2023/09/27 02:38:35;;;;;;;;;14.75;14.00;;;;;-143.90;100.00;75536.09;4962323;28;102373;-74
2023/09/27 02:41:03;;;;;;;;;13.50;11.75;;;;;-143.90;100.00;75527.81;4965369;28;104372;-74
2023/09/27 02:43:30;;;;;;;;;11.75;10.25;;;;;-143.90;100.00;75536.09;4963025;28;102107;-74
2023/09/27 02:45:57;;;;;;;;;8.00;6.75;;;;;-143.90;100.00;75540.22;4960806;28;102767;-74
2023/09/27 02:48:24;;;;;;;;;7.25;7.25;;;;;-143.90;100.00;75534.03;4965465;28;105169;-74
2023/09/27 02:50:53;;;;;;;;;12.75;11.25;;;;;-143.90;100.00;75542.31;4960459;28;105183;-74
2023/09/27 02:53:21;;;;;;;;;18.75;14.75;;;;;-143.90;100.00;75534.03;4964234;28;101910;-74
2023/09/27 02:55:47;;;;;;;;;13.75;12.75;;;;;-143.90;100.00;75531.97;4969044;28;102087;-74
2023/09/27 02:58:18;;;;;;;;;13.00;11.00;;;;;-143.90;100.00;75536.09;4971891;28;102282;-74
2023/09/27 03:00:45;;;;;;;;;9.00;8.00;;;;;-143.90;100.00;75531.97;4967931;28;108599;-74
2023/09/27 03:03:13;;;;;;;;;6.50;6.25;;;;;-143.90;100.00;75536.09;4971119;28;102257;-74
2023/09/27 03:05:40;;;;;;;;;7.00;6.00;;;;;-143.90;100.00;75542.31;4969214;28;102795;-74
2023/09/27 03:08:07;;;;;;;;;6.00;6.00;;;;;-143.90;100.00;75544.38;4966717;28;102055;-74
2023/09/27 03:10:38;;;;;;;;;6.25;6.25;;;;;-143.90;100.00;75540.22;4952394;28;102931;-73
2023/09/27 03:13:07;;;;;;;;;10.00;8.25;;;;;-143.90;100.00;75544.38;4956660;28;102203;-75
2023/09/27 03:15:34;;;;;;;;;6.00;6.00;;;;;-143.90;100.00;75554.72;4965179;28;102132;-72
2023/09/27 03:18:02;;;;;;;;;8.75;7.50;;;;;-143.90;100.00;75560.91;4970753;28;102392;-72
2023/09/27 03:20:32;;;;;;;;;3.25;3.25;;;;;-143.90;100.00;75569.19;4967251;28;104942;-72
2023/09/27 03:22:59;;;;;;;;;6.25;5.00;;;;;-143.90;100.00;75577.44;4971366;28;102197;-72
2023/09/27 03:25:26;;;;;;;;;4.25;4.25;;;;;-143.90;100.00;75577.44;4967519;28;102110;-73
2023/09/27 03:27:54;;;;;;;;;6.00;5.00;;;;;-143.90;100.00;75579.53;4967711;28;101944;-73
2023/09/27 03:30:21;;;;;;;;;6.25;5.75;;;;;-143.90;100.00;75581.59;4961563;28;103968;-73
2023/09/27 03:32:47;;;;;;;;;6.00;6.00;;;;;-143.90;100.00;75589.84;4966292;28;102254;-73
2023/09/27 03:35:15;;;;;;;;;6.00;5.50;;;;;-143.90;100.00;75591.94;4971700;28;102722;-73
2023/09/27 03:37:42;;;;;;;;;5.00;5.00;;;;;-143.90;100.00;75594.00;4967141;28;102106;-73
2023/09/27 03:40:15;;;;;;;;;2.00;1.50;;;;;-143.90;100.00;75602.25;4965688;28;104191;-74
2023/09/27 03:42:44;;;;;;;;;5.75;5.75;;;;;-143.90;100.00;75602.25;4956917;28;103885;-73
2023/09/27 03:45:12;;;;;;;;;5.00;5.00;;;;;-143.90;100.00;75606.41;4967512;28;101983;-74
2023/09/27 03:47:39;;;;;;;;;5.00;5.00;;;;;-143.90;100.00;75614.66;4967522;28;102305;-73
2023/09/27 03:50:06;;;;;;;;;5.75;5.25;;;;;-143.90;100.00;75620.88;4958665;28;104298;-73
2023/09/27 03:52:33;;;;;;;;;6.00;6.00;;;;;-143.90;100.00;75639.47;4954986;28;102239;-73
2023/09/27 03:55:00;;;;;;;;;5.25;5.25;;;;;-143.90;100.00;75643.63;4965489;28;102874;-73
2023/09/27 03:57:27;;;;;;;;;4.75;4.50;;;;;-143.90;99.79;75658.09;4969078;28;103081;-73
2023/09/27 03:59:54;;;;;;;;;5.00;4.00;;;;;-143.90;100.00;75672.56;4953903;28;104459;-74
2023/09/27 04:02:20;;;;;;;;;3.75;3.75;;;;;-143.90;100.00;75672.56;4966348;28;103663;-73
2023/09/27 04:04:47;;;;;;;;;4.00;4.00;;;;;-143.90;100.00;75674.63;4950517;28;101957;-74
2023/09/27 04:07:14;;;;;;;;;5.00;5.00;;;;;-143.90;100.00;75680.84;4968896;28;103961;-74
2023/09/27 04:09:41;;;;;;;;;4.00;2.50;;;;;-143.90;100.00;75684.97;4968279;28;109575;-73
2023/09/27 04:12:08;;;;;;;;;2.50;2.50;;;;;-143.90;100.00;75693.25;4967711;28;102183;-73
2023/09/27 04:14:34;;;;;;;;;3.75;3.75;;;;;-143.90;100.00;75705.66;4960688;28;102223;-74
2023/09/27 04:17:03;;;;;;;;;4.50;3.00;;;;;-143.90;100.00;75701.50;4951654;28;108790;-74
2023/09/27 04:19:33;;;;;;;;;4.00;4.00;;;;;-143.90;100.00;75709.78;4953230;28;103815;-74
2023/09/27 04:22:00;;;;;;;;;5.25;5.25;;;;;-143.90;100.00;75705.66;4956219;28;102641;-75
2023/09/27 04:24:27;;;;;;;;;4.75;4.75;;;;;-143.90;100.00;75707.72;4934496;28;102245;-75
2023/09/27 04:26:54;;;;;;;;;1.50;0.75;;;;;-143.90;100.00;75715.97;4960072;28;102493;-74
2023/09/27 04:29:20;;;;;;;;;4.00;4.00;;;;;-143.90;100.00;75726.31;4953286;28;105686;-73
2023/09/27 04:31:47;;;;;;;;;5.75;2.50;;;;;-143.90;100.00;75732.53;4955068;28;103664;-73
2023/09/27 04:34:15;;;;;;;;;6.00;5.00;;;;;-143.90;100.00;75726.31;4957960;28;103266;-74
2023/09/27 04:36:42;;;;;;;;;4.00;4.00;;;;;-143.90;100.00;75711.84;4952049;28;102575;-73
2023/09/27 04:39:13;;;;;;;;;4.50;3.75;;;;;-143.90;100.00;75709.78;4950784;28;103810;-73
2023/09/27 04:41:40;;;;;;;;;3.75;3.00;;;;;-143.90;100.00;75701.50;4965919;28;103606;-75
2023/09/27 04:44:09;;;;;;;;;6.00;6.00;;;;;-143.90;100.00;75707.72;4958931;28;103957;-75
2023/09/27 04:46:36;;;;;;;;;4.00;3.25;;;;;-143.90;100.00;75709.78;4965759;28;102902;-75
2023/09/27 04:49:02;;;;;;;;;3.50;3.50;;;;;-143.90;100.00;75709.78;4957817;27;103364;-76
2023/09/27 04:51:29;;;;;;;;;3.00;3.00;;;;;-143.90;100.00;75711.84;4965506;28;102151;-75
2023/09/27 04:54:00;;;;;;;;;2.50;2.50;;;;;-143.90;100.00;75711.84;4958782;28;105636;-74
2023/09/27 04:56:28;;;;;;;;;5.00;4.75;;;;;-143.90;100.00;75713.91;4959702;28;102444;-74
2023/09/27 04:58:56;;;;;;;;;5.00;4.00;;;;;-143.90;100.00;75726.31;4937037;28;104462;-74
2023/09/27 05:01:23;;;;;;;;;5.75;5.00;;;;;-143.90;100.00;75726.31;4958275;28;103096;-74
2023/09/27 05:03:50;;;;;;;;;3.50;3.50;;;;;-143.90;100.00;75726.31;4947792;28;101938;-74
2023/09/27 05:06:17;;;;;;;;;4.50;4.50;;;;;-143.90;100.00;75724.25;4964854;28;102299;-74
2023/09/27 05:08:44;;;;;;;;;4.25;4.25;;;;;-143.90;100.00;75742.88;4953061;28;104416;-74
2023/09/27 05:11:11;;;;;;;;;5.50;5.25;;;;;-143.90;100.00;75726.31;4954998;28;102395;-74
2023/09/27 05:13:39;;;;;;;;;4.75;4.50;;;;;-143.90;100.00;75734.59;4962404;28;101902;-74
2023/09/27 05:16:07;;;;;;;;;5.00;3.75;;;;;-143.90;100.00;75724.25;4961506;28;102333;-74
2023/09/27 05:18:33;;;;;;;;;6.00;6.00;;;;;-143.90;100.00;75722.19;4973130;28;103047;-73
2023/09/27 05:21:05;;;;;;;;;5.00;5.00;;;;;-143.90;100.00;75722.19;4949496;28;102064;-73
2023/09/27 05:23:33;;;;;;;;;12.25;10.00;;;;;-143.90;100.00;75720.13;4964435;28;102535;-73
2023/09/27 05:26:00;;;;;;;;;10.00;9.00;;;;;-143.90;100.00;75711.84;4963231;28;102273;-73
2023/09/27 05:28:28;;;;;;;;;10.75;9.25;;;;;-143.90;100.00;75718.06;4961963;28;104888;-74
2023/09/27 05:30:55;;;;;;;;;10.00;9.00;;;;;-143.90;100.00;75703.56;4967115;28;102074;-74
2023/09/27 05:33:22;;;;;;;;;6.25;6.00;;;;;-143.90;100.00;75713.91;4962679;28;103763;-74
2023/09/27 05:35:50;;;;;;;;;5.00;4.50;;;;;-143.90;100.00;75699.44;4965691;28;102054;-74
2023/09/27 05:38:17;;;;;;;;;6.00;6.00;;;;;-143.90;100.00;75705.66;4965935;28;103532;-74
2023/09/27 05:40:44;;;;;;;;;7.25;7.00;;;;;-143.90;100.00;75693.25;4964958;28;101917;-74
2023/09/27 05:43:11;;;;;;;;;7.75;6.00;;;;;-143.90;100.00;75680.84;4963017;28;102162;-74
2023/09/27 05:45:37;;;;;;;;;10.00;8.25;;;;;-143.90;100.00;75682.91;4963100;28;103076;-73
2023/09/27 05:48:05;;;;;;;;;8.75;6.75;;;;;-143.90;100.00;75660.16;4958378;28;104213;-73
2023/09/27 05:50:32;;;;;;;;;9.25;9.25;;;;;-143.90;100.00;75658.09;4959950;28;103857;-73
2023/09/27 05:52:59;;;;;;;;;9.00;7.00;;;;;-143.90;100.00;75653.94;4960130;28;102503;-72
2023/09/27 05:55:26;;;;;;;;;7.50;7.50;;;;;-143.90;100.00;75651.88;4966052;28;102630;-72
2023/09/27 05:57:54;;;;;;;;;6.00;6.00;;;;;-143.90;100.00;75631.22;4971965;28;104066;-74
2023/09/27 06:00:26;;;;;;;;;9.50;5.75;;;;;-143.90;100.00;75614.66;4964105;28;101887;-74
2023/09/27 06:02:53;;;;;;;;;5.00;5.00;;;;;-143.90;100.00;75610.53;4973940;28;102146;-73
2023/09/27 06:05:20;;;;;;;;;6.50;5.25;;;;;-143.90;100.00;75604.34;4971554;28;102358;-73
2023/09/27 06:07:48;;;;;;;;;6.00;6.00;;;;;-143.90;100.00;75585.72;4970435;28;103235;-73
2023/09/27 06:10:16;;;;;;;;;6.25;6.25;;;;;-143.90;100.00;75577.44;4986657;28;102913;-73
2023/09/27 06:12:43;;;;;;;;;6.50;6.50;;;;;-143.90;100.00;75560.91;4969739;28;102052;-74
2023/09/27 06:15:10;;;;;;;;;4.75;4.00;;;;;-143.90;100.00;75548.50;4974479;28;101984;-74
2023/09/27 06:17:37;;;;;;;;;4.00;4.00;;;;;-143.90;100.00;75536.09;4976966;28;108492;-74
2023/09/27 06:20:07;;;;;;;;;3.00;3.00;;;;;-143.90;100.00;75511.28;4973720;28;102333;-74
2023/09/27 06:22:34;;;;;;;;;4.25;3.00;;;;;-143.90;100.00;75490.63;4975464;28;102046;-73
2023/09/27 06:25:01;;;;;;;;;3.75;3.75;;;;;-143.90;100.00;75474.06;4973017;28;101941;-74
2023/09/27 06:27:27;;;;;;;;;6.00;4.50;;;;;-143.90;100.00;75461.66;4976217;28;104275;-74
2023/09/27 06:29:54;;;;;;;;;10.50;9.50;;;;;-143.90;100.00;75445.13;4966211;28;101980;-74
2023/09/27 06:32:22;;;;;;;;;6.00;5.00;;;;;-143.90;100.00;75422.38;4972020;28;102418;-73
2023/09/27 06:34:52;;;;;;;;;5.75;4.75;;;;;-143.90;100.00;75409.97;4968621;28;101996;-73
2023/09/27 06:37:19;;;;;;;;;4.50;4.50;;;;;-143.90;100.00;75393.44;4970718;28;104579;-72
2023/09/27 06:39:46;;;;;;;;;5.50;5.25;;;;;-143.90;100.00;75366.56;4965495;28;102330;-73
2023/09/27 06:42:13;;;;;;;;;4.00;4.00;;;;;-143.90;100.00;75345.88;4982761;28;101881;-73
2023/09/27 06:44:40;;;;;;;;;6.50;6.00;;;;;-143.90;100.00;75325.22;4976978;28;102376;-73
2023/09/27 06:47:07;;;;;;;;;6.75;5.25;;;;;-143.90;100.00;75308.66;4957605;28;103993;-73
2023/09/27 06:49:34;;;;;;;;;9.25;9.00;;;;;-143.90;100.00;75294.19;4964756;28;104106;-74
2023/09/27 06:52:01;;;;;;;;;9.25;8.00;;;;;-143.90;100.00;75275.59;4961800;28;102012;-73
2023/09/27 06:54:27;;;;;;;;;7.50;6.50;;;;;-143.90;100.00;75250.78;4967495;28;102160;-72
2023/09/27 06:56:54;;;;;;;;;8.00;7.25;;;;;-143.90;100.00;75225.97;4981593;28;103048;-73
2023/09/27 06:59:21;;;;;;;;;7.50;6.00;;;;;-143.90;100.00;75197.03;4965347;28;102241;-72
2023/09/27 07:01:49;;;;;;;;;8.00;8.00;;;;;-143.90;100.00;75188.75;4961461;28;102292;-73
2023/09/27 07:04:16;;;;;;;;;9.00;9.00;;;;;-143.90;100.00;75163.94;4987215;28;102276;-74
2023/09/27 07:06:43;;;;;;;;;5.00;5.00;;;;;-143.90;100.00;75147.41;4973182;28;104184;-72
2023/09/27 07:09:15;;;;;;;;;9.67;7.00;;;;;-143.90;100.00;75130.88;4963549;28;101779;-74
2023/09/27 07:11:44;;;;;;;;;8.67;8.33;;;;;-143.90;100.00;75110.19;4970389;28;102476;-75
2023/09/27 07:14:17;;;;;;;;;9.00;8.33;;;;;-143.90;100.00;75089.53;4963540;28;101804;-75
2023/09/27 07:16:46;;;;;;;;;8.67;8.33;;;;;-143.90;100.00;75070.91;4966819;28;107900;-74
2023/09/27 07:19:27;;;;;;;;;7.67;7.00;;;;;-143.90;100.00;75048.19;4957476;28;102270;-75
2023/09/27 07:21:54;;;;;;;;;9.33;8.00;;;;;-143.90;100.00;75033.72;4970181;28;102115;-74
2023/09/27 07:24:20;;;;;;;;;8.67;8.00;;;;;-143.90;100.00;75006.84;4967846;28;101939;-73
2023/09/27 07:26:49;;;;;;;;;7.33;7.33;;;;;-143.90;100.00;74996.50;4971351;28;105189;-74
2023/09/27 07:29:16;;;;;;;;;8.00;7.00;;;;;-143.90;99.58;74977.88;4971866;28;102181;-74
2023/09/27 07:31:43;;;;;;;;;8.33;8.33;;;;;-143.90;99.02;74965.50;4977584;28;102098;-73
2023/09/27 07:34:10;;;;;;;;;10.33;9.00;;;;;-143.90;97.83;74946.88;4971411;28;102422;-73
2023/09/27 07:36:36;;;;;;;;;8.00;7.00;;;;;-143.90;95.28;74930.34;4965848;28;104199;-73
2023/09/27 07:39:05;;;;;;;;;10.67;10.00;;;;;-143.90;96.04;74917.94;4970804;28;101805;-73
2023/09/27 07:41:35;;;;;;;;;10.00;9.67;;;;;-143.90;93.27;74903.47;4966923;28;102371;-73
2023/09/27 07:44:04;;;;;;;;;10.33;9.00;;;;;-143.90;94.33;74886.94;4972113;28;102057;-73
2023/09/27 07:46:31;;;;;;;;;11.00;9.67;;;;;-143.90;93.86;74864.19;4966642;28;104025;-73
2023/09/27 07:48:58;;;;;;;;;9.33;9.00;;;;;-143.90;94.43;74845.59;4969249;28;102038;-74
2023/09/27 07:51:24;;;;;;;;;7.67;7.67;;;;;-143.90;92.90;74826.97;4968971;28;102006;-73
2023/09/27 07:53:51;;;;;;;;;9.33;8.00;;;;;-143.90;91.83;74812.50;4971231;28;101936;-74
2023/09/27 07:56:19;;;;;;;;;6.33;6.33;;;;;-143.90;89.58;74798.03;4972203;28;104228;-72
2023/09/27 07:58:49;;;;;;;;;9.33;9.33;;;;;-143.90;89.28;74779.44;4960511;28;101950;-73
2023/09/27 08:01:20;;;;;;;;;9.00;8.00;;;;;-143.90;87.94;74767.03;4971440;28;102266;-74
2023/09/27 08:03:51;;;;;;;;;6.00;6.00;;;;;-143.90;85.89;74750.50;4965952;28;102403;-74
2023/09/27 08:06:19;;;;;;;;;8.00;7.33;;;;;-143.90;85.34;74727.75;4965946;28;109802;-74
2023/09/27 08:08:47;;;;;;;;;6.67;6.00;;;;;-143.90;83.50;74721.56;4963681;28;101823;-74
2023/09/27 08:11:13;;;;;;;;;7.33;7.00;;;;;-143.90;84.42;74700.88;4955628;28;102139;-74
2023/09/27 08:13:40;;;;;;;;;6.00;6.00;;;;;-143.90;83.49;74688.47;4964237;28;104358;-73
2023/09/27 08:16:07;;;;;;;;;6.33;5.00;;;;;-143.90;79.81;74674.00;4963492;28;103319;-73
2023/09/27 08:18:37;;;;;;;;;6.00;6.00;;;;;-143.90;80.99;74661.59;4965289;28;102033;-74
2023/09/27 08:21:04;;;;;;;;;4.00;3.33;;;;;-143.90;78.10;74651.28;4977510;28;102093;-74
2023/09/27 08:23:31;;;;;;;;;7.67;7.00;;;;;-143.90;76.22;74647.13;4964515;28;102925;-73
2023/09/27 08:25:58;;;;;;;;;5.00;4.67;;;;;-143.90;76.31;74628.53;4962993;28;104140;-73
2023/09/27 08:28:25;;;;;;;;;7.00;6.00;;;;;-143.90;77.44;74618.19;4964152;28;102108;-73
2023/09/27 08:30:58;;;;;;;;;7.00;6.00;;;;;-143.90;75.50;74597.53;4964900;28;102170;-74
2023/09/27 08:33:25;;;;;;;;;5.67;5.33;;;;;-143.90;74.82;74589.25;4967357;28;102018;-73
2023/09/27 08:35:52;;;;;;;;;6.67;6.00;;;;;-143.90;72.65;74572.72;4965110;28;104166;-74
2023/09/27 08:38:19;;;;;;;;;6.67;6.67;;;;;-143.90;72.21;74564.44;4965597;28;101955;-72
2023/09/27 08:40:48;;;;;;;;;7.33;7.33;;;;;-143.90;71.33;74566.53;4969199;28;102751;-74
2023/09/27 08:43:15;;;;;;;;;7.33;6.00;;;;;-143.90;71.65;74547.91;4962564;28;102112;-74
2023/09/27 08:45:45;;;;;;;;;3.00;3.00;;;;;-143.90;74.35;74529.31;4967588;28;104202;-73
2023/09/27 08:48:18;;;;;;;;;8.33;7.00;;;;;-143.90;73.51;74518.97;4964847;28;102267;-72
2023/09/27 08:50:46;;;;;;;;;8.00;7.33;;;;;-143.90;72.09;74498.31;4970823;28;105504;-73
2023/09/27 08:53:13;;;;;;;;;5.00;5.00;;;;;-143.90;74.05;74485.91;4968972;28;102697;-74
2023/09/27 08:55:46;;;;;;;;;5.00;5.00;;;;;-143.90;74.13;74469.38;4954570;28;103314;-72
2023/09/27 08:58:14;;;;;;;;;6.67;6.67;;;;;-143.90;74.12;74456.97;4948612;27;102275;-73
2023/09/27 09:00:42;;;;;;;;;4.67;4.67;;;;;-143.90;73.70;74446.63;4947580;27;102110;-74
2023/09/27 09:03:10;;;;;;;;;4.33;4.33;;;;;-143.90;70.85;74438.38;4945604;28;102312;-74
2023/09/27 09:05:39;;;;;;;;;5.00;4.00;;;;;-143.90;70.30;74425.97;4940505;28;104275;-73
2023/09/27 09:08:06;;;;;;;;;3.00;3.00;;;;;-143.90;68.11;74415.63;4943453;28;102463;-73
2023/09/27 09:10:33;;;;;;;;;5.00;5.00;;;;;-143.90;70.38;74394.94;4936137;28;102457;-74
2023/09/27 09:13:00;;;;;;;;;5.00;5.00;;;;;-143.90;69.06;74384.63;4949972;27;101947;-72
2023/09/27 09:15:40;;;;;;;;;7.00;5.00;;;;;-143.90;67.17;74366.00;4942743;28;104023;-73
2023/09/27 09:18:14;;;;;;;;;2.00;2.00;;;;;-143.90;64.31;74353.63;4952294;28;102285;-73
2023/09/27 09:20:49;;;;;;;;;3.00;3.00;;;;;-143.90;63.65;74341.22;4947998;28;102292;-74
2023/09/27 09:23:36;;;;;;;;;4.00;4.00;;;;;-143.90;61.84;74349.47;4945573;28;102237;-74
2023/09/27 09:26:05;;;;;;;;;5.00;5.00;;;;;-143.90;63.10;74337.06;4941748;28;108636;-74
2023/09/27 09:28:33;;;;;;;;;4.67;4.33;;;;;-143.90;64.91;74324.69;4939249;28;102904;-74
2023/09/27 09:31:01;;;;;;;;;6.00;5.00;;;;;-143.90;64.63;74316.41;4949017;27;102847;-73
2023/09/27 09:33:36;;;;;;;;;3.67;3.00;;;;;-143.90;63.44;74295.75;4945352;27;102539;-73
2023/09/27 09:36:03;;;;;;;;;2.33;2.33;;;;;-143.90;65.56;74287.47;4946170;28;104332;-72
2023/09/27 09:38:30;;;;;;;;;3.00;3.00;;;;;-143.90;67.22;74270.94;4937188;28;102115;-73
2023/09/27 09:41:00;;;;;;;;;5.00;5.00;;;;;-143.90;60.73;74262.66;4943918;28;102223;-73
2023/09/27 09:43:38;;;;;;;;;6.00;6.00;;;;;-143.90;62.33;74264.72;4940499;28;102062;-73
2023/09/27 09:46:08;;;;;;;;;4.00;4.00;;;;;-143.90;63.60;74250.25;4945001;28;105231;-73
2023/09/27 09:48:38;;;;;;;;;5.00;5.00;;;;;-143.90;63.05;74235.78;4952445;28;102299;-73
2023/09/27 09:51:08;;;;;;;;;4.00;3.67;;;;;-143.90;63.47;74221.31;4943262;28;101961;-73
2023/09/27 09:53:40;;;;;;;;;3.00;3.00;;;;;-143.90;61.09;74211.00;4948365;28;102233;-73
2023/09/27 09:56:10;;;;;;;;;4.00;4.00;;;;;-143.90;61.68;74213.06;4961358;28;104074;-72
2023/09/27 09:58:47;;;;;;;;;4.00;4.00;;;;;-143.90;61.58;74200.66;4980662;28;102281;-73
2023/09/27 10:01:18;;;;;;;;;4.00;4.00;;;;;-143.90;59.08;74192.41;4962831;28;102389;-74
2023/09/27 10:03:47;;;;;;;;;3.67;3.67;;;;;-143.90;57.41;74184.13;4964235;28;102026;-74
2023/09/27 10:06:22;;;;;;;;;4.00;4.00;;;;;-143.90;59.66;74175.84;4964618;28;104194;-74
2023/09/27 10:09:13;;;;;;;;;6.00;5.67;;;;;-143.90;57.38;74165.53;4884373;28;102514;-72
2023/09/27 10:11:46;;;;;;;;;5.00;5.00;;;;;-143.90;57.11;74159.31;4968083;28;102166;-73
2023/09/27 10:14:17;;;;;;;;;4.00;4.00;;;;;-143.90;53.42;74155.19;4963066;28;102391;-74
2023/09/27 10:16:44;;;;;;;;;9.00;9.00;;;;;-143.90;55.39;74173.78;4959579;28;103532;-74
2023/09/27 10:19:13;;;;;;;;;15.00;14.00;;;;;-143.90;55.12;74188.25;4965499;28;103172;-73
2023/09/27 10:22:05;;;;;;;;;12.00;11.00;;;;;-143.90;53.48;74155.19;4967504;28;102124;-74
2023/09/27 10:24:34;;;;;;;;;6.00;6.00;;;;;-143.90;53.34;74138.66;4967393;28;103311;-74
2023/09/27 10:27:01;;;;;;;;;7.00;7.00;;;;;-143.90;54.28;74132.44;4982343;28;103562;-74
2023/09/27 10:29:29;;;;;;;;;6.00;5.00;;;;;-143.90;52.08;74118.00;4963036;28;102324;-74
2023/09/27 10:31:56;;;;;;;;;4.67;4.67;;;;;-143.90;51.07;74107.66;4972785;28;103496;-74
2023/09/27 10:34:26;;;;;;;;;5.00;5.00;;;;;-143.90;49.68;74101.44;4971566;28;102360;-73
2023/09/27 10:36:54;;;;;;;;;7.00;7.00;;;;;-143.90;50.41;74097.31;4973267;28;104025;-73
2023/09/27 10:39:38;;;;;;;;;5.00;5.00;;;;;-143.90;49.99;74089.06;4965280;28;101985;-73
2023/09/27 10:42:05;;;;;;;;;2.67;2.00;;;;;-143.90;51.14;74074.59;4971518;27;103600;-73
2023/09/27 10:44:33;;;;;;;;;7.00;6.00;;;;;-143.90;45.71;74093.19;4968723;28;102410;-72
2023/09/27 10:47:03;;;;;;;;;7.00;6.00;;;;;-143.90;47.52;74084.91;4968409;28;103398;-74
2023/09/27 10:49:38;;;;;;;;;5.00;5.00;;;;;-143.90;48.54;74070.44;4971507;28;101828;-73
2023/09/27 10:52:16;;;;;;;;;4.33;4.00;;;;;-143.90;49.06;74070.44;4961251;28;107328;-74
2023/09/27 10:54:44;;;;;;;;;4.33;4.00;;;;;-143.90;46.52;74062.19;4979115;28;102403;-73
2023/09/27 10:57:12;;;;;;;;;5.00;4.33;;;;;-143.90;43.78;74060.13;4959329;28;104106;-73
2023/09/27 10:59:41;;;;;;;;;4.67;4.67;;;;;-143.90;44.98;74060.13;4964007;27;101924;-74
2023/09/27 11:02:08;;;;;;;;;7.25;6.00;;;;;-143.90;45.48;74060.13;4960985;28;102603;-74
2023/09/27 11:04:36;;;;;;;;;5.00;4.00;;;;;-143.90;43.20;74055.97;4961149;28;102837;-73